Time;durP1;ratioP1;P1;durP2;ratioP2;P2;SDS_P1;SDS_P2;PMS_P1;PMS_P2;Temp;Humidity;BMP_temperature;BMP_pressure;BME280_temperature;BME280_humidity;BME280_pressure;Samples;Min_cycle;Max_cycle;Signal;HPM_P1;HPM_P2
2022/12/23 00:00:37;;;;;;;;;;;;;;;30.83;22.09;100687.94;5076033;28;1004;-12
2022/12/23 00:03:02;;;;;;;;;;;;;;;31.02;21.80;100695.22;5075997;28;1075;-13
2022/12/23 00:05:28;;;;;;;;;;;;;;;31.27;21.53;100694.53;5076032;28;1171;-12
2022/12/23 00:07:53;;;;;;;;;;;;;;;31.31;21.43;100702.25;5076076;28;1003;-12
2022/12/23 00:10:18;;;;;;;;;;;;;;;31.36;21.55;100700.59;5075497;28;1019;-13
2022/12/23 00:15:27;;;;;;;;;;;;;;;31.54;21.21;100690.94;5074501;28;2605;-12
2022/12/23 00:17:53;;;;;;;;;;;;;;;31.23;21.44;100676.16;5076046;28;1972;-12
2022/12/23 00:20:18;;;;;;;;;;;;;;;31.74;20.91;100695.44;5074849;28;1115;-12
2022/12/23 00:25:40;;;;;;;;;;;;;;;31.94;20.94;100692.63;5063160;28;919;-12
2022/12/23 00:28:10;;;;;;;;;;;;;;;30.89;21.73;100687.09;5075780;28;1095;-13
2022/12/23 00:30:36;;;;;;;;;;;;;;;29.76;23.53;100688.31;5075749;28;1008;-13
2022/12/23 00:33:01;;;;;;;;;;;;;;;30.56;22.75;100683.31;5075732;28;1055;-12
2022/12/23 00:35:28;;;;;;;;;;;;;;;31.48;21.27;100681.75;5075718;28;845;-12
2022/12/23 00:37:54;;;;;;;;;;;;;;;30.75;21.78;100668.06;5075177;28;1902;-12
2022/12/23 00:43:03;;;;;;;;;;;;;;;28.65;25.25;100672.59;5075163;28;988;-12
2022/12/23 00:45:28;;;;;;;;;;;;;;;28.82;24.80;100670.44;5067736;28;2603;-12
2022/12/23 00:50:37;;;;;;;;;;;;;;;29.62;24.13;100662.19;5075251;28;1079;-13
2022/12/23 00:53:03;;;;;;;;;;;;;;;30.71;22.42;100658.66;5075182;28;1060;-12
2022/12/23 00:55:29;;;;;;;;;;;;;;;31.22;22.04;100658.16;5075124;28;1492;-12
2022/12/23 00:57:54;;;;;;;;;;;;;;;31.48;21.58;100656.47;5075327;28;1905;-12
2022/12/23 01:05:35;;;;;;;;;;;;;;;31.57;21.26;100655.16;5071024;28;1404;-13
2022/12/23 01:05:48;;;;;;;;;;;;;;;31.95;20.83;100648.06;5075135;28;1214;-12
2022/12/23 01:08:14;;;;;;;;;;;;;;;31.97;20.82;100645.97;5075755;28;1015;-13
2022/12/23 01:10:39;;;;;;;;;;;;;;;32.15;20.77;100649.84;5074732;28;1128;-12
2022/12/23 01:13:04;;;;;;;;;;;;;;;32.07;20.74;100648.22;5075136;28;1047;-12
2022/12/23 01:15:30;;;;;;;;;;;;;;;31.14;21.60;100643.78;5074677;28;2696;-12
2022/12/23 01:17:55;;;;;;;;;;;;;;;29.94;23.08;100638.97;5074771;28;1977;-12
2022/12/23 01:20:21;;;;;;;;;;;;;;;30.68;22.78;100632.75;5057039;28;1817;-12
2022/12/23 01:22:46;;;;;;;;;;;;;;;31.52;21.74;100634.06;5074741;28;1137;-12
2022/12/23 01:25:12;;;;;;;;;;;;;;;31.67;21.20;100626.66;5074883;28;1111;-12
2022/12/23 01:27:37;;;;;;;;;;;;;;;31.62;21.31;100621.88;5075216;28;1134;-12
2022/12/23 01:30:02;;;;;;;;;;;;;;;31.69;21.18;100619.97;5074570;28;1099;-12
2022/12/23 01:32:28;;;;;;;;;;;;;;;31.30;21.67;100616.38;5078328;28;1051;-13
2022/12/23 01:34:53;;;;;;;;;;;;;;;30.51;22.22;100610.63;5074326;28;1027;-12
2022/12/23 01:37:18;;;;;;;;;;;;;;;29.77;23.61;100603.25;5070338;28;1968;-12
2022/12/23 01:39:44;;;;;;;;;;;;;;;30.41;22.89;100611.06;5065182;28;1015;-12
2022/12/23 01:44:56;;;;;;;;;;;;;;;30.24;22.62;100605.22;5066507;28;2376;-12
2022/12/23 01:47:25;;;;;;;;;;;;;;;29.11;24.55;100602.78;5070687;28;1143;-12
2022/12/23 01:49:51;;;;;;;;;;;;;;;29.20;24.45;100598.00;5078762;28;1099;-13
2022/12/23 01:52:17;;;;;;;;;;;;;;;29.14;24.61;100598.81;5078043;28;1102;-12
2022/12/23 01:54:42;;;;;;;;;;;;;;;28.81;24.98;100598.38;5078270;28;996;-12
2022/12/23 01:57:07;;;;;;;;;;;;;;;29.37;24.25;100597.66;5078160;28;1906;-12
2022/12/23 02:05:09;;;;;;;;;;;;;;;30.17;23.26;100593.50;5078144;28;1099;-12
2022/12/23 02:10:18;;;;;;;;;;;;;;;30.24;23.06;100588.94;5078014;28;1100;-12
2022/12/23 02:13:02;;;;;;;;;;;;;;;30.31;23.06;100588.94;5059550;28;881;-12
2022/12/23 02:18:20;;;;;;;;;;;;;;;30.66;22.83;100587.88;5077855;28;1921;-13
2022/12/23 02:20:54;;;;;;;;;;;;;;;30.57;22.66;100592.69;5077721;28;1007;-12
2022/12/23 02:23:23;;;;;;;;;;;;;;;31.02;22.25;100585.72;5077077;28;1214;-12
2022/12/23 02:25:48;;;;;;;;;;;;;;;30.90;22.19;100588.25;5077710;28;1059;-12
2022/12/23 02:28:13;;;;;;;;;;;;;;;30.13;23.35;100584.13;5077684;28;1163;-12
2022/12/23 02:30:49;;;;;;;;;;;;;;;29.75;23.94;100588.22;5077936;28;1140;-12
2022/12/23 02:33:24;;;;;;;;;;;;;;;30.17;23.36;100583.47;5059771;28;1111;-12
2022/12/23 02:36:03;;;;;;;;;;;;;;;29.99;23.68;100578.69;5077679;28;1095;-12
2022/12/23 02:38:31;;;;;;;;;;;;;;;29.66;24.06;100572.13;5047722;28;1906;-12
2022/12/23 02:41:05;;;;;;;;;;;;;;;29.75;23.94;100577.38;5059629;28;1016;-12
2022/12/23 02:43:34;;;;;;;;;;;;;;;30.00;23.54;100576.78;5055299;28;2262;-13
2022/12/23 02:46:12;;;;;;;;;;;;;;;30.15;23.42;100577.44;5055707;28;1192;-12
2022/12/23 02:48:43;;;;;;;;;;;;;;;30.39;23.18;100580.59;5077009;28;989;-13
2022/12/23 02:51:08;;;;;;;;;;;;;;;30.63;22.91;100580.16;5059251;28;1076;-13
2022/12/23 02:53:34;;;;;;;;;;;;;;;30.55;23.00;100583.91;5059513;28;1043;-12
2022/12/23 02:56:00;;;;;;;;;;;;;;;30.71;22.80;100585.38;5061896;28;1086;-12
2022/12/23 02:58:26;;;;;;;;;;;;;;;31.37;22.03;100589.97;5059185;28;1906;-12
2022/12/23 03:00:51;;;;;;;;;;;;;;;31.14;21.86;100585.88;5058933;28;1174;-12
2022/12/23 03:03:19;;;;;;;;;;;;;;;30.76;22.43;100582.81;5058846;28;1110;-12
2022/12/23 03:05:45;;;;;;;;;;;;;;;29.59;24.34;100574.00;5076769;28;1155;-12
2022/12/23 03:08:15;;;;;;;;;;;;;;;29.53;24.25;100572.91;5077066;28;1023;-12
2022/12/23 03:10:40;;;;;;;;;;;;;;;29.54;24.43;100571.03;5076754;28;1082;-12
2022/12/23 03:13:34;;;;;;;;;;;;;;;29.57;24.55;100576.06;5077103;28;876;-12
2022/12/23 03:16:12;;;;;;;;;;;;;;;29.91;23.94;100570.75;5045151;28;1603;-12
2022/12/23 03:18:45;;;;;;;;;;;;;;;30.28;23.35;100573.91;5076296;28;1910;-12
2022/12/23 03:21:10;;;;;;;;;;;;;;;30.55;23.12;100575.75;5059356;28;1201;-12
2022/12/23 03:23:43;;;;;;;;;;;;;;;30.45;23.45;100570.75;5076172;28;1078;-12
2022/12/23 03:26:13;;;;;;;;;;;;;;;30.76;23.09;100565.72;5075892;28;992;-12
2022/12/23 03:28:40;;;;;;;;;;;;;;;30.88;22.71;100566.75;5045728;28;1085;-13
2022/12/23 03:31:06;;;;;;;;;;;;;;;31.30;22.43;100562.00;5058378;28;1118;-12
2022/12/23 03:33:36;;;;;;;;;;;;;;;32.06;21.13;100564.09;5058778;28;1017;-12
2022/12/23 03:36:03;;;;;;;;;;;;;;;31.37;21.56;100566.34;5058593;28;1020;-12
2022/12/23 03:38:28;;;;;;;;;;;;;;;31.24;21.63;100567.25;5076457;28;1969;-12
2022/12/23 03:40:55;;;;;;;;;;;;;;;29.81;24.20;100561.09;5057936;28;1036;-12
2022/12/23 03:43:24;;;;;;;;;;;;;;;31.14;22.34;100564.16;5055990;28;2592;-12
2022/12/23 03:45:53;;;;;;;;;;;;;;;31.59;21.78;100567.94;5053425;28;1160;-13
2022/12/23 03:48:19;;;;;;;;;;;;;;;31.74;21.43;100560.31;5057838;28;1202;-13
2022/12/23 03:50:45;;;;;;;;;;;;;;;32.18;21.28;100564.22;5058096;28;1024;-12
2022/12/23 03:53:15;;;;;;;;;;;;;;;31.47;21.43;100557.75;5058066;28;1043;-12
2022/12/23 03:55:44;;;;;;;;;;;;;;;31.49;20.98;100561.09;5057460;28;1168;-12
2022/12/23 03:58:23;;;;;;;;;;;;;;;29.66;24.25;100555.88;5076398;28;1902;-12
2022/12/23 04:01:10;;;;;;;;;;;;;;;29.88;24.15;100555.69;5075981;28;1075;-12
2022/12/23 04:03:55;;;;;;;;;;;;;;;29.73;24.32;100555.06;5074865;28;1256;-13
2022/12/23 04:06:20;;;;;;;;;;;;;;;29.68;24.34;100548.38;5034617;28;1256;-12
2022/12/23 04:08:46;;;;;;;;;;;;;;;30.37;23.46;100554.69;5058271;28;987;-12
2022/12/23 04:11:11;;;;;;;;;;;;;;;30.64;22.90;100549.25;5058014;28;1007;-13
2022/12/23 04:13:36;;;;;;;;;;;;;;;31.11;22.35;100557.28;5057023;28;2441;-13
2022/12/23 04:16:02;;;;;;;;;;;;;;;31.31;21.80;100560.94;5058032;28;1092;-13
2022/12/23 04:18:27;;;;;;;;;;;;;;;31.31;21.75;100564.50;5057554;28;1917;-12
2022/12/23 04:20:52;;;;;;;;;;;;;;;29.82;23.40;100561.97;5075621;28;1082;-12
2022/12/23 04:23:17;;;;;;;;;;;;;;;29.73;22.71;100569.44;5075864;28;1183;-12
2022/12/23 04:25:43;;;;;;;;;;;;;;;29.76;21.94;100571.72;5075258;28;885;-12
2022/12/23 04:28:08;;;;;;;;;;;;;;;30.37;21.30;100571.81;5075565;28;1103;-12
2022/12/23 04:30:33;;;;;;;;;;;;;;;29.76;21.98;100569.03;5066037;28;1126;-12
2022/12/23 04:32:59;;;;;;;;;;;;;;;29.64;22.27;100568.81;5058127;28;1152;-12
2022/12/23 04:35:24;;;;;;;;;;;;;;;29.68;22.29;100564.63;5076161;28;1111;-12
2022/12/23 04:37:49;;;;;;;;;;;;;;;29.65;21.99;100570.47;5075125;28;1964;-12
2022/12/23 04:40:15;;;;;;;;;;;;;;;29.76;21.83;100571.72;5075345;28;1042;-12
2022/12/23 04:42:40;;;;;;;;;;;;;;;29.87;22.07;100580.31;5075516;28;1023;-12
2022/12/23 04:45:05;;;;;;;;;;;;;;;30.74;20.54;100573.22;5075012;28;2637;-12
2022/12/23 04:47:31;;;;;;;;;;;;;;;30.61;20.53;100574.09;5075263;28;1111;-12
2022/12/23 04:49:56;;;;;;;;;;;;;;;28.72;16.33;100567.94;5075245;28;847;-11
2022/12/23 04:52:22;;;;;;;;;;;;;;;26.83;18.15;100565.91;5075278;28;1139;-12
2022/12/23 04:54:47;;;;;;;;;;;;;;;27.92;21.08;100574.34;5075525;28;1008;-12
2022/12/23 04:57:13;;;;;;;;;;;;;;;27.86;21.05;100567.00;5075121;28;1953;-12
2022/12/23 04:59:38;;;;;;;;;;;;;;;28.31;20.63;100580.28;5075689;28;1143;-12
2022/12/23 05:02:03;;;;;;;;;;;;;;;28.09;20.76;100574.91;5074170;28;921;-12
2022/12/23 05:04:28;;;;;;;;;;;;;;;27.90;21.56;100580.94;5075460;28;1008;-12
2022/12/23 05:06:54;;;;;;;;;;;;;;;27.93;21.75;100588.66;5077405;28;1023;-12
2022/12/23 05:09:19;;;;;;;;;;;;;;;28.20;21.84;100592.50;5079093;28;1063;-12
2022/12/23 05:11:44;;;;;;;;;;;;;;;28.19;21.48;100588.13;5079257;28;1008;-12
2022/12/23 05:14:10;;;;;;;;;;;;;;;28.19;22.00;100584.56;5078378;28;2462;-12
2022/12/23 05:16:35;;;;;;;;;;;;;;;28.94;21.14;100586.81;5078047;28;1107;-11
2022/12/23 05:19:00;;;;;;;;;;;;;;;28.65;21.50;100586.00;5059155;28;1977;-12
2022/12/23 05:21:26;;;;;;;;;;;;;;;29.09;20.99;100564.22;5072961;28;1131;-12
2022/12/23 05:23:51;;;;;;;;;;;;;;;29.31;20.75;100581.16;5079005;28;991;-12
2022/12/23 05:26:16;;;;;;;;;;;;;;;29.67;20.50;100581.94;5064952;28;930;-12
2022/12/23 05:28:44;;;;;;;;;;;;;;;28.85;21.26;100571.75;5065656;28;1221;-11
2022/12/23 05:31:10;;;;;;;;;;;;;;;28.08;22.16;100578.66;5078627;28;1136;-11
2022/12/23 05:33:35;;;;;;;;;;;;;;;27.84;22.18;100580.69;5071603;28;1182;-12
2022/12/23 05:36:00;;;;;;;;;;;;;;;27.45;23.09;100585.44;5072837;28;1124;-12
2022/12/23 05:38:26;;;;;;;;;;;;;;;28.12;21.95;100589.91;5067978;28;1976;-12
2022/12/23 05:40:51;;;;;;;;;;;;;;;27.73;22.22;100586.59;5065106;28;1167;-12
2022/12/23 05:43:17;;;;;;;;;;;;;;;27.52;22.56;100574.72;5076970;28;2003;-11
2022/12/23 05:45:42;;;;;;;;;;;;;;;27.16;23.40;100594.44;5071546;28;1074;-11
2022/12/23 05:48:07;;;;;;;;;;;;;;;27.24;23.29;100588.94;5065775;28;1099;-12
2022/12/23 05:50:33;;;;;;;;;;;;;;;27.48;22.96;100587.75;5064635;28;853;-11
2022/12/23 05:52:58;;;;;;;;;;;;;;;27.44;22.54;100591.88;5078139;28;1125;-11
2022/12/23 05:55:23;;;;;;;;;;;;;;;27.85;21.95;100576.97;5078443;28;1012;-12
2022/12/23 05:57:49;;;;;;;;;;;;;;;27.89;22.17;100587.41;5071332;28;1894;-12
2022/12/23 06:00:15;;;;;;;;;;;;;;;28.26;21.68;100588.16;5072091;28;1075;-12
2022/12/23 06:02:40;;;;;;;;;;;;;;;28.05;22.43;100583.59;5065612;28;989;-11
2022/12/23 06:05:06;;;;;;;;;;;;;;;27.94;22.39;100582.25;5064428;28;1218;-12
2022/12/23 06:07:31;;;;;;;;;;;;;;;28.16;22.34;100593.06;5058622;28;1165;-12
2022/12/23 06:09:56;;;;;;;;;;;;;;;28.54;21.93;100591.94;5058108;28;1136;-11
2022/12/23 06:12:21;;;;;;;;;;;;;;;28.34;21.85;100585.34;5064846;28;1046;-12
2022/12/23 06:14:47;;;;;;;;;;;;;;;28.71;21.25;100590.59;5063703;28;2070;-12
2022/12/23 06:17:12;;;;;;;;;;;;;;;27.91;21.87;100588.88;5076908;28;1914;-12
2022/12/23 06:19:37;;;;;;;;;;;;;;;27.82;22.21;100596.28;5064986;28;1457;-12
2022/12/23 06:22:02;;;;;;;;;;;;;;;28.31;21.73;100591.09;5077193;28;1013;-12
2022/12/23 06:24:28;;;;;;;;;;;;;;;27.70;22.35;100595.94;5077987;28;1056;-12
2022/12/23 06:26:53;;;;;;;;;;;;;;;28.01;22.22;100596.66;5064784;28;1119;-12
2022/12/23 06:29:20;;;;;;;;;;;;;;;27.76;22.41;100597.03;5078079;28;1004;-12
2022/12/23 06:31:45;;;;;;;;;;;;;;;28.14;22.08;100600.53;5071948;28;1051;-12
2022/12/23 06:34:11;;;;;;;;;;;;;;;28.49;21.22;100608.78;5070772;28;1084;-11
2022/12/23 06:36:36;;;;;;;;;;;;;;;28.49;21.35;100606.06;5071332;28;1048;-12
2022/12/23 06:39:01;;;;;;;;;;;;;;;28.59;21.38;100613.84;5057268;28;1906;-12
2022/12/23 06:41:26;;;;;;;;;;;;;;;28.93;21.12;100603.22;5063979;28;1087;-12
2022/12/23 06:43:52;;;;;;;;;;;;;;;28.54;21.44;100605.47;5070863;28;1989;-12
2022/12/23 06:46:17;;;;;;;;;;;;;;;28.30;21.53;100611.09;5063628;28;1092;-12
2022/12/23 06:48:42;;;;;;;;;;;;;;;28.55;21.64;100605.28;5077878;28;1048;-12
2022/12/23 06:51:09;;;;;;;;;;;;;;;29.23;20.94;100607.63;5070817;28;1115;-12
2022/12/23 06:53:35;;;;;;;;;;;;;;;29.39;20.80;100603.72;5056969;28;1087;-12
2022/12/23 06:56:00;;;;;;;;;;;;;;;29.45;20.64;100597.47;5075994;28;1052;-12
2022/12/23 06:58:26;;;;;;;;;;;;;;;28.65;21.56;100601.38;5076967;28;1905;-12
2022/12/23 07:00:51;;;;;;;;;;;;;;;28.82;21.47;100605.47;5070454;28;1190;-12
2022/12/23 07:03:16;;;;;;;;;;;;;;;28.81;21.47;100602.97;5069641;28;1060;-11
2022/12/23 07:05:45;;;;;;;;;;;;;;;28.57;21.29;100605.09;5070819;28;1198;-12
2022/12/23 07:08:10;;;;;;;;;;;;;;;28.20;22.39;100603.31;5056875;28;1042;-12
2022/12/23 07:10:36;;;;;;;;;;;;;;;26.76;19.77;100604.41;5061487;28;1005;-12
2022/12/23 07:13:01;;;;;;;;;;;;;;;25.01;22.15;100597.38;5076425;28;1199;-12
2022/12/23 07:15:26;;;;;;;;;;;;;;;27.33;21.42;100608.53;5075965;28;1813;-12
2022/12/23 07:17:53;;;;;;;;;;;;;;;27.23;22.11;100600.72;5065038;28;1914;-12
2022/12/23 07:20:18;;;;;;;;;;;;;;;27.55;22.29;100605.91;5061751;28;1139;-12
2022/12/23 07:22:43;;;;;;;;;;;;;;;28.01;21.62;100601.25;5076716;28;1024;-12
2022/12/23 07:25:08;;;;;;;;;;;;;;;27.94;21.50;100607.44;5076623;28;1020;-12
2022/12/23 07:27:34;;;;;;;;;;;;;;;27.65;22.14;100608.31;5068026;28;1081;-12
2022/12/23 07:29:59;;;;;;;;;;;;;;;28.53;21.29;100604.63;5076047;28;1239;-12
2022/12/23 07:32:24;;;;;;;;;;;;;;;28.95;21.00;100609.28;5062968;28;1024;-12
2022/12/23 07:34:50;;;;;;;;;;;;;;;29.13;20.64;100608.78;5065190;28;1187;-12
2022/12/23 07:37:15;;;;;;;;;;;;;;;29.08;20.81;100608.56;5056941;28;1913;-11
2022/12/23 07:39:40;;;;;;;;;;;;;;;28.89;21.14;100610.09;5057149;28;1079;-12
2022/12/23 07:42:06;;;;;;;;;;;;;;;29.03;21.11;100611.06;5057554;28;1019;-11
2022/12/23 07:44:31;;;;;;;;;;;;;;;29.11;20.79;100608.19;5074873;28;1835;-12
2022/12/23 07:46:56;;;;;;;;;;;;;;;29.08;20.84;100612.13;5076050;28;1258;-12
2022/12/23 07:49:22;;;;;;;;;;;;;;;28.33;22.10;100610.72;5075416;28;1152;-11
2022/12/23 07:51:48;;;;;;;;;;;;;;;29.85;20.65;100613.06;5073262;28;1294;-12
2022/12/23 07:54:13;;;;;;;;;;;;;;;29.65;20.82;100602.16;5075294;28;1073;-12
2022/12/23 07:56:39;;;;;;;;;;;;;;;29.32;20.90;100604.53;5075830;28;1274;-12
2022/12/23 07:59:04;;;;;;;;;;;;;;;28.56;22.27;100603.44;5075840;28;1961;-12
2022/12/23 08:01:29;;;;;;;;;;;;;;;29.33;21.51;100599.94;5074893;28;1275;-11
2022/12/23 08:03:54;;;;;;;;;;;;;;;29.99;20.86;100599.53;5074461;28;1164;-11
2022/12/23 08:06:20;;;;;;;;;;;;;;;29.61;20.89;100574.66;5076010;28;1211;-12
2022/12/23 08:08:45;;;;;;;;;;;;;;;29.36;21.21;100594.13;5075598;28;1238;-12
2022/12/23 08:11:11;;;;;;;;;;;;;;;29.00;22.31;100600.59;5057524;28;1211;-12
2022/12/23 08:13:37;;;;;;;;;;;;;;;28.93;22.41;100598.66;5073093;28;1859;-11
2022/12/23 08:16:02;;;;;;;;;;;;;;;29.67;21.61;100605.50;5072116;28;1329;-12
2022/12/23 08:18:31;;;;;;;;;;;;;;;29.59;21.39;100603.81;5075555;28;1909;-12
2022/12/23 08:20:57;;;;;;;;;;;;;;;29.53;21.42;100604.63;5075540;28;1211;-11
2022/12/23 08:23:22;;;;;;;;;;;;;;;28.79;22.77;100591.50;5074912;28;1274;-12
2022/12/23 08:25:48;;;;;;;;;;;;;;;29.20;22.41;100601.56;5074875;28;1265;-12
2022/12/23 08:28:13;;;;;;;;;;;;;;;29.78;21.79;100590.53;5075129;28;1262;-12
2022/12/23 08:30:38;;;;;;;;;;;;;;;29.74;21.37;100587.41;5075310;28;1317;-12
2022/12/23 08:33:03;;;;;;;;;;;;;;;29.47;21.58;100581.84;5075151;28;1274;-12
2022/12/23 08:35:29;;;;;;;;;;;;;;;29.26;22.72;100582.81;5075450;28;1215;-12
2022/12/23 08:37:54;;;;;;;;;;;;;;;29.59;22.26;100582.13;5073364;28;1913;-12
2022/12/23 08:40:19;;;;;;;;;;;;;;;29.52;22.25;100571.25;5074223;28;1235;-12
2022/12/23 08:42:45;;;;;;;;;;;;;;;29.55;22.12;100570.00;5075224;28;1184;-12
2022/12/23 08:45:11;;;;;;;;;;;;;;;29.41;21.73;100567.22;5072832;28;2362;-12
2022/12/23 08:47:36;;;;;;;;;;;;;;;28.52;23.84;100558.84;5075256;28;1234;-12
2022/12/23 08:50:02;;;;;;;;;;;;;;;29.44;22.70;100556.03;5074907;28;1243;-12
2022/12/23 08:52:27;;;;;;;;;;;;;;;29.92;21.71;100546.13;5074981;28;1255;-11
2022/12/23 08:54:52;;;;;;;;;;;;;;;29.74;21.87;100557.56;5074671;28;1211;-12
2022/12/23 08:57:17;;;;;;;;;;;;;;;29.05;22.75;100543.97;5074744;28;1959;-12
2022/12/23 08:59:43;;;;;;;;;;;;;;;29.15;23.09;100547.16;5075376;28;1068;-12
2022/12/23 09:02:09;;;;;;;;;;;;;;;28.69;23.66;100529.59;5074662;28;1207;-12
2022/12/23 09:04:35;;;;;;;;;;;;;;;29.59;22.46;100538.78;5057253;28;1263;-12
2022/12/23 09:07:00;;;;;;;;;;;;;;;29.60;22.25;100540.44;5075271;28;1365;-12
2022/12/23 09:09:25;;;;;;;;;;;;;;;28.95;23.19;100533.47;5075036;28;1239;-12
2022/12/23 09:11:51;;;;;;;;;;;;;;;29.14;23.42;100533.81;5075278;28;1171;-12
2022/12/23 09:14:16;;;;;;;;;;;;;;;29.62;21.85;100532.94;5070511;28;2419;-12
2022/12/23 09:16:41;;;;;;;;;;;;;;;29.45;21.70;100527.03;5070168;28;1222;-13
2022/12/23 09:19:06;;;;;;;;;;;;;;;29.28;22.27;100524.69;5074921;28;1967;-12
2022/12/23 09:21:32;;;;;;;;;;;;;;;30.01;21.31;100522.31;5073162;28;1066;-12
2022/12/23 09:23:57;;;;;;;;;;;;;;;30.12;20.99;100525.47;5069383;28;1147;-12
2022/12/23 09:26:23;;;;;;;;;;;;;;;29.47;21.42;100516.81;5062215;28;1114;-12
2022/12/23 09:28:49;;;;;;;;;;;;;;;29.13;21.83;100518.59;5061400;28;1064;-12
2022/12/23 09:31:14;;;;;;;;;;;;;;;29.73;21.27;100522.53;5074313;28;1085;-12
2022/12/23 09:33:40;;;;;;;;;;;;;;;28.81;22.48;100514.47;5074802;28;1294;-12
2022/12/23 09:36:05;;;;;;;;;;;;;;;28.66;22.50;100511.06;5075409;28;1339;-12
2022/12/23 09:38:30;;;;;;;;;;;;;;;28.84;22.23;100510.53;5074631;28;2298;-12
2022/12/23 09:41:11;;;;;;;;;;;;;;;29.18;21.67;100508.81;5061869;28;1107;-12
2022/12/23 09:43:48;;;;;;;;;;;;;;;28.84;22.70;100499.69;5049588;28;1851;-12
2022/12/23 09:46:13;;;;;;;;;;;;;;;29.07;22.61;100501.28;5056724;28;1278;-12
2022/12/23 09:48:44;;;;;;;;;;;;;;;29.21;22.27;100505.69;5074644;28;1207;-12
2022/12/23 09:51:10;;;;;;;;;;;;;;;28.82;22.21;100507.19;5063106;28;1209;-12
2022/12/23 09:53:41;;;;;;;;;;;;;;;29.48;22.03;100510.34;5043864;28;1124;-12
2022/12/23 09:56:11;;;;;;;;;;;;;;;29.58;21.56;100496.41;5065809;28;1060;-12
2022/12/23 09:58:45;;;;;;;;;;;;;;;28.33;23.25;100502.53;5046299;28;1898;-12
2022/12/23 10:01:16;;;;;;;;;;;;;;;28.08;23.89;100505.63;5060093;28;1329;-12
2022/12/23 10:04:00;;;;;;;;;;;;;;;29.32;22.25;100507.00;5059214;28;1092;-12
2022/12/23 10:06:26;;;;;;;;;;;;;;;28.67;22.81;100510.84;5058246;28;1008;-12
2022/12/23 10:08:52;;;;;;;;;;;;;;;28.54;23.11;100499.94;5060365;28;1198;-12
2022/12/23 10:11:19;;;;;;;;;;;;;;;28.98;22.57;100497.09;5064279;28;1015;-12
2022/12/23 10:13:45;;;;;;;;;;;;;;;28.89;22.75;100499.09;5072815;28;1931;-12
2022/12/23 10:16:12;;;;;;;;;;;;;;;28.85;23.01;100495.94;5063782;28;1187;-12
2022/12/23 10:18:46;;;;;;;;;;;;;;;28.91;22.67;100488.91;5077419;28;1973;-12
2022/12/23 10:21:22;;;;;;;;;;;;;;;28.50;22.98;100488.69;5059519;28;1302;-12
2022/12/23 10:23:48;;;;;;;;;;;;;;;28.13;23.57;100488.00;5077033;28;1250;-12
2022/12/23 10:26:16;;;;;;;;;;;;;;;28.79;23.23;100483.22;5077773;28;1354;-11
2022/12/23 10:28:41;;;;;;;;;;;;;;;28.67;22.62;100489.22;5056798;28;1251;-11
2022/12/23 10:31:10;;;;;;;;;;;;;;;28.23;22.97;100474.94;5059690;28;1207;-11
2022/12/23 10:33:42;;;;;;;;;;;;;;;28.14;23.64;100474.28;5059446;28;1172;-11
2022/12/23 10:36:19;;;;;;;;;;;;;;;27.77;24.44;100482.50;5059366;28;1255;-12
2022/12/23 10:38:44;;;;;;;;;;;;;;;28.03;23.80;100472.94;5059008;28;1959;-12
2022/12/23 10:41:25;;;;;;;;;;;;;;;28.27;23.37;100478.94;5069440;28;1004;-12
2022/12/23 10:44:09;;;;;;;;;;;;;;;28.20;23.52;100472.63;5074115;28;1796;-12
2022/12/23 10:46:49;;;;;;;;;;;;;;;27.74;24.48;100475.59;5077281;28;1266;-12
2022/12/23 10:49:30;;;;;;;;;;;;;;;28.51;23.60;100470.59;5076849;28;1316;-11
2022/12/23 10:51:56;;;;;;;;;;;;;;;28.26;23.77;100476.44;5076519;28;1039;-12
2022/12/23 10:54:25;;;;;;;;;;;;;;;28.23;23.72;100469.53;5077268;28;1011;-11
2022/12/23 10:56:51;;;;;;;;;;;;;;;28.15;23.71;100470.53;5077077;28;979;-12
2022/12/23 10:59:19;;;;;;;;;;;;;;;28.32;23.14;100472.94;5058415;28;1977;-12
2022/12/23 11:01:46;;;;;;;;;;;;;;;28.08;23.57;100466.94;5056324;28;1272;-12
2022/12/23 11:04:18;;;;;;;;;;;;;;;28.22;23.68;100462.47;5076043;28;1255;-11
2022/12/23 11:06:45;;;;;;;;;;;;;;;28.75;23.17;100463.00;5058833;28;1184;-12
2022/12/23 11:09:20;;;;;;;;;;;;;;;28.15;23.41;100457.00;5076708;28;1274;-12
2022/12/23 11:12:02;;;;;;;;;;;;;;;28.27;23.48;100456.47;5058706;28;1141;-12
2022/12/23 11:14:38;;;;;;;;;;;;;;;28.24;23.86;100455.00;5056961;28;1941;-12
2022/12/23 11:17:04;;;;;;;;;;;;;;;28.71;22.97;100457.16;5076287;28;1918;-12
2022/12/23 11:19:29;;;;;;;;;;;;;;;29.09;22.81;100461.28;5068521;28;1036;-12
2022/12/23 11:21:58;;;;;;;;;;;;;;;29.31;22.39;100455.72;5052589;28;1040;-12
2022/12/23 11:24:24;;;;;;;;;;;;;;;29.40;22.24;100456.34;5057194;28;997;-12
2022/12/23 11:26:50;;;;;;;;;;;;;;;29.28;22.19;100448.81;5058324;28;1027;-12
2022/12/23 11:29:20;;;;;;;;;;;;;;;29.38;22.28;100451.13;5076381;28;854;-12
2022/12/23 11:31:46;;;;;;;;;;;;;;;29.36;22.01;100447.81;5058750;28;1052;-12
2022/12/23 11:34:18;;;;;;;;;;;;;;;29.27;22.28;100449.88;5068018;28;1107;-12
2022/12/23 11:36:43;;;;;;;;;;;;;;;29.37;22.09;100452.19;5039193;28;1091;-12
2022/12/23 11:39:08;;;;;;;;;;;;;;;29.32;21.95;100452.81;5047748;28;1894;-12
2022/12/23 11:41:35;;;;;;;;;;;;;;;29.31;22.09;100451.13;5059502;28;1434;-12
2022/12/23 11:44:03;;;;;;;;;;;;;;;29.24;22.26;100449.44;5068880;28;1900;-12
2022/12/23 11:46:29;;;;;;;;;;;;;;;29.17;22.29;100436.72;5073235;28;1087;-12
2022/12/23 11:49:12;;;;;;;;;;;;;;;29.04;22.56;100436.69;5076045;28;1066;-12
2022/12/23 11:51:38;;;;;;;;;;;;;;;29.18;22.98;100441.09;5039039;28;1187;-11
2022/12/23 11:54:03;;;;;;;;;;;;;;;29.64;22.42;100448.72;5038193;28;1056;-12
2022/12/23 11:56:38;;;;;;;;;;;;;;;29.45;22.30;100445.72;5075059;28;980;-12
2022/12/23 11:59:06;;;;;;;;;;;;;;;28.47;23.34;100451.22;5063234;28;1967;-12
2022/12/23 12:01:32;;;;;;;;;;;;;;;28.65;22.52;100449.84;5075292;28;1338;-12
2022/12/23 12:04:05;;;;;;;;;;;;;;;28.44;23.19;100449.75;5065959;28;1051;-12
2022/12/23 12:06:30;;;;;;;;;;;;;;;28.17;23.67;100457.66;5056306;28;1168;-12
2022/12/23 12:08:56;;;;;;;;;;;;;;;28.35;23.47;100454.47;5058035;28;1028;-12
2022/12/23 12:11:25;;;;;;;;;;;;;;;27.75;23.61;100455.69;5075573;28;1248;-12
2022/12/23 12:14:01;;;;;;;;;;;;;;;26.68;24.20;100448.00;5056062;28;1829;-12
2022/12/23 12:16:29;;;;;;;;;;;;;;;26.60;23.87;100454.34;5051125;28;1183;-12
2022/12/23 12:18:56;;;;;;;;;;;;;;;27.12;23.37;100449.00;5056067;28;1898;-12
2022/12/23 12:21:22;;;;;;;;;;;;;;;28.78;21.57;100447.19;5051260;28;1125;-12
2022/12/23 12:23:52;;;;;;;;;;;;;;;29.05;21.19;100449.19;5057614;28;1129;-12
2022/12/23 12:26:27;;;;;;;;;;;;;;;29.05;21.36;100450.03;5075369;28;1258;-12
2022/12/23 12:28:55;;;;;;;;;;;;;;;28.00;22.86;100449.00;5073349;28;1172;-12
2022/12/23 12:31:23;;;;;;;;;;;;;;;29.09;21.58;100445.03;5057363;28;1302;-12
2022/12/23 12:33:57;;;;;;;;;;;;;;;29.15;21.56;100454.22;5074898;28;1230;-12
2022/12/23 12:36:22;;;;;;;;;;;;;;;28.66;22.36;100456.94;5075176;28;1305;-12
2022/12/23 12:38:47;;;;;;;;;;;;;;;27.77;23.54;100463.59;5074917;28;1922;-11
2022/12/23 12:41:13;;;;;;;;;;;;;;;27.82;23.82;100465.69;5072016;28;1156;-11
2022/12/23 12:43:43;;;;;;;;;;;;;;;28.87;22.26;100465.97;5071696;28;1939;-12
2022/12/23 12:46:27;;;;;;;;;;;;;;;28.83;22.48;100474.50;5048267;28;1116;-11
2022/12/23 12:49:04;;;;;;;;;;;;;;;27.87;23.78;100468.66;5075050;28;1148;-12
2022/12/23 12:51:37;;;;;;;;;;;;;;;28.50;23.30;100468.91;5075678;28;1067;-12
2022/12/23 12:54:12;;;;;;;;;;;;;;;28.97;22.33;100466.47;5049951;28;980;-12
2022/12/23 12:56:43;;;;;;;;;;;;;;;28.46;23.28;100465.78;5056659;28;1024;-12
2022/12/23 12:59:21;;;;;;;;;;;;;;;27.80;24.47;100470.47;5056884;28;1959;-12
2022/12/23 13:01:56;;;;;;;;;;;;;;;27.82;24.57;100474.66;5049705;28;1069;-12
2022/12/23 13:04:50;;;;;;;;;;;;;;;28.26;23.97;100482.66;5057421;28;1134;-12
2022/12/23 13:07:24;;;;;;;;;;;;;;;29.00;22.69;100485.00;5001335;28;1421;-12
2022/12/23 13:09:55;;;;;;;;;;;;;;;28.47;23.87;100481.81;5074574;28;1341;-12
2022/12/23 13:12:20;;;;;;;;;;;;;;;28.13;24.14;100480.69;5057019;28;1362;-12
2022/12/23 13:14:46;;;;;;;;;;;;;;;28.55;23.75;100471.84;5074831;28;1951;-12
2022/12/23 13:17:12;;;;;;;;;;;;;;;29.09;22.81;100481.06;5073920;28;1985;-12